createdAt,value
2023-04-12T00:01:04.512Z,88.23
2023-04-12T00:03:36.786Z,87.92
2023-04-12T00:06:10.579Z,87.39
2023-04-12T00:08:42.986Z,87.04
2023-04-12T00:11:15.834Z,86.54
2023-04-12T00:13:48.152Z,86.93
2023-04-12T00:16:20.587Z,87.15
2023-04-12T00:18:52.743Z,86.97
2023-04-12T00:21:28.951Z,87.23
2023-04-12T00:24:01.537Z,87.49
2023-04-12T00:26:33.591Z,86.60
2023-04-12T00:29:05.622Z,86.16
2023-04-12T00:31:37.796Z,86.46
2023-04-12T00:34:09.971Z,86.89
2023-04-12T00:36:42.039Z,86.95
2023-04-12T00:39:14.101Z,86.62
2023-04-12T00:41:46.190Z,85.04
2023-04-12T00:44:18.448Z,85.22
2023-04-12T00:46:51.237Z,85.12
2023-04-12T00:49:23.370Z,84.22
2023-04-12T00:51:55.595Z,85.05
2023-04-12T00:54:27.670Z,84.53
2023-04-12T00:57:01.340Z,85.02
2023-04-12T00:59:33.528Z,83.24
2023-04-12T01:02:07.005Z,83.78
2023-04-12T01:04:39.826Z,83.55
2023-04-12T01:07:45.209Z,83.15
2023-04-12T01:10:19.853Z,83.43
2023-04-12T01:13:11.981Z,83.78
2023-04-12T01:16:24.204Z,83.60
2023-04-12T01:19:05.195Z,83.36
2023-04-12T01:22:13.741Z,82.88
2023-04-12T01:25:04.485Z,84.00
2023-04-12T01:27:45.833Z,83.41
2023-04-12T01:30:21.200Z,83.56
2023-04-12T01:32:55.844Z,81.99
2023-04-12T01:35:34.569Z,83.13
2023-04-12T01:38:07.653Z,82.07
2023-04-12T01:40:42.795Z,81.96
2023-04-12T01:43:16.307Z,81.93
2023-04-12T01:45:48.506Z,81.35
2023-04-12T01:48:20.999Z,80.97
2023-04-12T01:51:11.091Z,81.59
2023-04-12T01:53:55.252Z,81.24
2023-04-12T01:56:32.263Z,81.04
2023-04-12T01:59:05.574Z,81.59
2023-04-12T02:01:37.939Z,81.25
2023-04-12T02:04:10.964Z,81.36
2023-04-12T02:06:43.939Z,80.54
2023-04-12T02:09:16.273Z,81.32
2023-04-12T02:11:49.569Z,81.05
2023-04-12T02:14:22.185Z,81.11
2023-04-12T02:16:55.241Z,80.54
2023-04-12T02:19:27.333Z,81.50
2023-04-12T02:21:59.428Z,82.51
2023-04-12T02:24:31.923Z,81.63
2023-04-12T02:27:04.100Z,82.40
2023-04-12T02:29:36.189Z,82.14
2023-04-12T02:32:08.351Z,82.53
2023-04-12T02:34:40.530Z,82.43
2023-04-12T02:37:14.038Z,81.74
2023-04-12T02:39:46.086Z,81.59
2023-04-12T02:42:18.284Z,81.37
2023-04-12T02:44:50.443Z,81.69
2023-04-12T02:47:22.577Z,81.13
2023-04-12T02:49:55.315Z,81.43
2023-04-12T02:52:29.057Z,81.45
2023-04-12T02:55:01.167Z,81.09
2023-04-12T02:57:33.223Z,80.76
2023-04-12T03:00:12.552Z,81.43
2023-04-12T03:02:45.335Z,81.56
2023-04-12T03:05:17.977Z,81.43
2023-04-12T03:07:50.018Z,81.45
2023-04-12T03:10:22.262Z,81.39
2023-04-12T03:12:54.339Z,81.55
2023-04-12T03:15:28.305Z,81.66
2023-04-12T03:18:00.720Z,81.23
2023-04-12T03:20:33.733Z,82.09
2023-04-12T03:23:06.006Z,80.98
2023-04-12T03:25:38.779Z,81.72
2023-04-12T03:28:11.198Z,81.33
2023-04-12T03:30:43.331Z,81.56
2023-04-12T03:33:15.460Z,81.35
2023-04-12T03:35:47.537Z,81.55
2023-04-12T03:38:19.653Z,81.57
2023-04-12T03:40:51.695Z,82.21
2023-04-12T03:43:23.804Z,81.20
2023-04-12T03:45:55.890Z,81.67
2023-04-12T03:48:27.941Z,81.68
2023-04-12T03:51:00.345Z,82.31
2023-04-12T03:53:32.399Z,81.85
2023-04-12T03:56:04.996Z,81.57
2023-04-12T03:58:37.032Z,81.93
2023-04-12T04:01:09.453Z,82.47
2023-04-12T04:03:41.794Z,82.46
2023-04-12T04:06:13.933Z,82.65
2023-04-12T04:08:46.200Z,82.41
2023-04-12T04:11:18.344Z,82.63
2023-04-12T04:13:50.719Z,83.07
2023-04-12T04:16:23.124Z,83.07
2023-04-12T04:18:55.305Z,83.31
2023-04-12T04:21:30.624Z,82.23
2023-04-12T04:24:02.883Z,82.47
2023-04-12T04:26:35.068Z,82.23
2023-04-12T04:29:07.122Z,82.82
2023-04-12T04:31:39.267Z,82.80
2023-04-12T04:34:12.858Z,82.62
2023-04-12T04:36:45.178Z,83.22
2023-04-12T04:39:17.370Z,83.16
2023-04-12T04:41:55.009Z,83.08
2023-04-12T04:44:27.334Z,82.84
2023-04-12T04:47:00.917Z,83.29
2023-04-12T04:49:34.018Z,84.17
2023-04-12T04:52:07.413Z,82.70
2023-04-12T04:54:40.256Z,82.30
2023-04-12T04:57:12.364Z,82.85
2023-04-12T04:59:44.443Z,83.16
2023-04-12T05:02:19.075Z,83.00
2023-04-12T05:04:51.508Z,81.54
2023-04-12T05:07:23.880Z,81.31
2023-04-12T05:09:56.052Z,81.11
2023-04-12T05:12:28.072Z,81.49
2023-04-12T05:15:11.224Z,80.62
2023-04-12T05:17:44.330Z,80.08
2023-04-12T05:20:16.859Z,80.98
2023-04-12T05:22:48.943Z,79.81
2023-04-12T05:25:21.310Z,79.51
2023-04-12T05:27:54.049Z,78.50
2023-04-12T05:30:26.221Z,79.29
2023-04-12T05:32:58.310Z,78.21
2023-04-12T05:35:31.605Z,78.90
2023-04-12T05:38:03.747Z,79.54
2023-04-12T05:40:36.663Z,78.63
2023-04-12T05:43:12.621Z,79.41
2023-04-12T05:45:45.700Z,77.25
2023-04-12T05:48:19.029Z,78.17
2023-04-12T05:50:52.829Z,78.84
2023-04-12T05:53:24.901Z,77.40
2023-04-12T05:55:56.969Z,77.28
2023-04-12T05:58:29.001Z,77.36
2023-04-12T06:01:01.195Z,76.85
2023-04-12T06:03:33.614Z,77.75
2023-04-12T06:06:06.504Z,76.58
2023-04-12T06:08:38.766Z,76.44
2023-04-12T06:11:12.260Z,77.05
2023-04-12T06:13:44.327Z,76.29
2023-04-12T06:16:16.431Z,77.08
2023-04-12T06:18:48.473Z,76.84
2023-04-12T06:21:20.602Z,76.81
2023-04-12T06:23:52.749Z,77.27
2023-04-12T06:26:24.873Z,77.24
2023-04-12T06:28:58.637Z,76.69
2023-04-12T06:31:31.809Z,75.86
2023-04-12T06:34:03.994Z,75.52
2023-04-12T06:36:38.334Z,76.10
2023-04-12T06:39:12.236Z,75.39
2023-04-12T06:41:44.378Z,75.36
2023-04-12T06:44:17.111Z,74.24
2023-04-12T06:46:49.376Z,74.86
2023-04-12T06:49:21.490Z,73.71
2023-04-12T06:51:53.605Z,72.70
2023-04-12T06:54:25.678Z,73.22
2023-04-12T06:56:57.947Z,73.22
2023-04-12T06:59:30.045Z,72.86
2023-04-12T07:02:02.161Z,72.91
2023-04-12T07:04:34.294Z,71.48
2023-04-12T07:07:07.033Z,71.24
2023-04-12T07:09:39.112Z,70.25
2023-04-12T07:12:11.165Z,69.34
2023-04-12T07:14:44.782Z,69.24
2023-04-12T07:17:17.067Z,67.96
2023-04-12T07:19:50.568Z,68.09
2023-04-12T07:22:23.016Z,68.91
2023-04-12T07:24:55.314Z,68.00
2023-04-12T07:27:27.504Z,68.23
2023-04-12T07:29:59.984Z,67.51
2023-04-12T07:32:32.237Z,67.09
2023-04-12T07:35:05.150Z,68.45
2023-04-12T07:37:38.059Z,68.61
2023-04-12T07:40:10.237Z,67.62
2023-04-12T07:42:42.330Z,68.13
2023-04-12T07:45:14.616Z,68.49
2023-04-12T07:47:46.798Z,68.39
2023-04-12T07:50:49.044Z,67.93
2023-04-12T07:53:26.921Z,68.70
2023-04-12T07:55:59.039Z,69.45
2023-04-12T07:58:31.685Z,70.31
2023-04-12T08:01:04.074Z,70.87
2023-04-12T08:03:36.337Z,72.43
2023-04-12T08:06:08.975Z,72.21
2023-04-12T08:08:41.480Z,74.01
2023-04-12T08:11:13.897Z,75.08
2023-04-12T08:13:46.658Z,74.39
2023-04-12T08:16:18.840Z,72.86
2023-04-12T08:18:51.088Z,73.60
2023-04-12T08:21:23.416Z,73.77
2023-04-12T08:23:55.851Z,74.83
2023-04-12T08:26:29.940Z,73.69
2023-04-12T08:29:02.099Z,73.80
2023-04-12T08:31:34.564Z,73.53
2023-04-12T08:34:06.728Z,75.73
2023-04-12T08:36:38.821Z,77.02
2023-04-12T08:39:11.061Z,79.17
2023-04-12T08:41:43.655Z,80.28
2023-04-12T08:44:17.254Z,81.76
2023-04-12T08:46:50.693Z,82.81
2023-04-12T08:49:25.243Z,85.35
2023-04-12T08:52:02.114Z,86.12
2023-04-12T08:54:35.667Z,87.34
2023-04-12T08:57:09.899Z,89.83
2023-04-12T08:59:43.953Z,92.57
2023-04-12T09:02:16.306Z,92.78
2023-04-12T09:04:50.485Z,94.72
2023-04-12T09:07:23.841Z,96.32
2023-04-12T09:09:56.914Z,97.26
2023-04-12T09:12:29.139Z,98.77
2023-04-12T09:15:13.983Z,98.44
2023-04-12T09:17:46.646Z,100.00
2023-04-12T09:20:18.942Z,100.00
2023-04-12T09:22:52.884Z,98.82
2023-04-12T09:25:45.876Z,100.00
2023-04-12T09:28:23.644Z,100.00
2023-04-12T09:30:58.357Z,100.00
2023-04-12T09:33:39.696Z,100.00
2023-04-12T09:36:17.096Z,100.00
2023-04-12T09:39:04.401Z,100.00
2023-04-12T09:41:36.632Z,100.00
2023-04-12T09:44:08.804Z,100.00
2023-04-12T09:46:52.299Z,100.00
2023-04-12T09:50:34.074Z,100.00
2023-04-12T09:53:19.992Z,100.00
2023-04-12T09:55:52.548Z,100.00
2023-04-12T09:59:43.374Z,100.00
2023-04-12T10:02:18.766Z,100.00
2023-04-12T10:04:51.720Z,100.00
2023-04-12T10:07:24.016Z,100.00
2023-04-12T10:10:02.835Z,100.00
2023-04-12T10:12:38.290Z,100.00
2023-04-12T10:15:18.013Z,100.00
2023-04-12T10:17:54.302Z,100.00
2023-04-12T10:20:29.284Z,100.00
2023-04-12T10:23:03.071Z,100.00
2023-04-12T10:25:35.265Z,100.00
2023-04-12T10:28:19.772Z,100.00
2023-04-12T10:30:54.716Z,100.00
2023-04-12T10:33:31.032Z,100.00
2023-04-12T10:36:07.248Z,100.00
2023-04-12T10:39:08.732Z,100.00
2023-04-12T10:42:20.950Z,100.00
2023-04-12T10:44:58.730Z,100.00
2023-04-12T10:47:59.308Z,100.00
2023-04-12T10:50:34.231Z,100.00
2023-04-12T10:53:18.450Z,100.00
2023-04-12T10:55:51.291Z,100.00
2023-04-12T10:58:48.445Z,100.00
2023-04-12T11:01:22.062Z,100.00
2023-04-12T11:04:17.561Z,100.00
2023-04-12T11:06:55.391Z,100.00
2023-04-12T11:09:35.279Z,100.00
2023-04-12T11:12:09.563Z,100.00
2023-04-12T11:14:46.071Z,100.00
2023-04-12T11:17:18.215Z,100.00
2023-04-12T11:20:04.145Z,100.00
2023-04-12T11:22:38.785Z,100.00
2023-04-12T11:25:10.904Z,100.00
2023-04-12T11:27:51.645Z,100.00
2023-04-12T11:30:25.816Z,100.00
2023-04-12T11:32:57.924Z,100.00
2023-04-12T11:35:31.822Z,100.00
2023-04-12T11:38:04.411Z,100.00
2023-04-12T11:40:36.523Z,100.00
2023-04-12T11:43:08.592Z,100.00
2023-04-12T11:45:41.110Z,100.00
2023-04-12T11:48:13.566Z,100.00
2023-04-12T11:51:07.871Z,100.00
2023-04-12T11:53:46.110Z,100.00
2023-04-12T11:56:18.259Z,100.00
2023-04-12T11:58:51.192Z,100.00
2023-04-12T12:04:23.935Z,100.00
2023-04-12T12:06:59.754Z,100.00
2023-04-12T12:09:32.335Z,100.00
2023-04-12T12:12:04.801Z,100.00
2023-04-12T12:15:02.313Z,100.00
2023-04-12T12:17:40.256Z,100.00
2023-04-12T12:20:21.987Z,100.00
2023-04-12T12:22:57.533Z,100.00
2023-04-12T12:25:29.994Z,100.00
2023-04-12T12:28:05.741Z,100.00
2023-04-12T12:30:40.366Z,100.00
2023-04-12T12:33:14.443Z,100.00
2023-04-12T12:35:47.018Z,100.00
2023-04-12T12:39:11.777Z,100.00
2023-04-12T12:41:44.391Z,100.00
2023-04-12T12:44:16.507Z,100.00
2023-04-12T12:47:26.190Z,100.00
2023-04-12T12:49:58.409Z,100.00
2023-04-12T12:52:40.703Z,100.00
2023-04-12T12:58:31.328Z,100.00
2023-04-12T13:01:31.658Z,100.00
2023-04-12T13:04:10.272Z,100.00
2023-04-12T13:07:35.022Z,100.00
2023-04-12T13:10:08.681Z,100.00
2023-04-12T13:12:41.267Z,100.00
2023-04-12T13:17:49.605Z,100.00
2023-04-12T13:20:23.240Z,100.00
2023-04-12T13:22:56.227Z,100.00
2023-04-12T13:25:28.705Z,100.00
2023-04-12T13:28:02.073Z,100.00
2023-04-12T13:30:34.317Z,100.00
2023-04-12T13:33:44.075Z,100.00
2023-04-12T13:37:01.280Z,100.00
2023-04-12T13:46:44.097Z,100.00
2023-04-12T13:49:33.992Z,100.00
2023-04-12T13:52:10.461Z,100.00
2023-04-12T14:01:48.692Z,100.00
2023-04-12T14:05:04.355Z,100.00
2023-04-12T14:19:25.221Z,100.00
2023-04-12T14:45:28.529Z,100.00
2023-04-12T14:56:02.828Z,100.00
2023-04-12T14:58:36.436Z,100.00
2023-04-12T15:01:13.092Z,100.00
2023-04-12T15:03:46.313Z,100.00
2023-04-12T15:06:19.521Z,100.00
2023-04-12T15:08:55.237Z,100.00
2023-04-12T15:11:27.752Z,100.00
2023-04-12T15:14:00.329Z,100.00
2023-04-12T15:16:35.188Z,100.00
2023-04-12T15:19:17.051Z,100.00
2023-04-12T15:21:54.389Z,100.00
2023-04-12T15:24:27.456Z,100.00
2023-04-12T15:27:03.683Z,100.00
2023-04-12T15:29:42.645Z,100.00
2023-04-12T15:32:14.978Z,100.00
2023-04-12T15:35:26.395Z,100.00
2023-04-12T15:37:59.766Z,100.00
2023-04-12T15:40:32.305Z,100.00
2023-04-12T15:43:04.844Z,100.00
2023-04-12T15:45:42.925Z,100.00
2023-04-12T15:48:15.124Z,100.00
2023-04-12T15:50:48.978Z,100.00
2023-04-12T15:53:23.810Z,100.00
2023-04-12T15:55:56.263Z,100.00
2023-04-12T15:58:28.438Z,100.00
2023-04-12T16:01:00.524Z,100.00
2023-04-12T16:03:32.824Z,100.00
2023-04-12T16:06:05.436Z,100.00
2023-04-12T16:08:37.525Z,100.00
2023-04-12T16:11:12.345Z,100.00
2023-04-12T16:13:46.584Z,100.00
2023-04-12T16:16:21.772Z,100.00
2023-04-12T16:18:55.983Z,100.00
2023-04-12T16:21:28.642Z,100.00
2023-04-12T16:24:00.904Z,100.00
2023-04-12T16:26:33.861Z,100.00
2023-04-12T16:29:05.969Z,100.00
2023-04-12T16:31:38.997Z,100.00
2023-04-12T16:34:11.261Z,100.00
2023-04-12T16:36:43.810Z,100.00
2023-04-12T16:39:16.774Z,100.00
2023-04-12T16:41:48.896Z,100.00
2023-04-12T16:44:21.190Z,100.00
2023-04-12T16:46:54.266Z,100.00
2023-04-12T16:49:26.647Z,100.00
2023-04-12T16:51:59.646Z,100.00
2023-04-12T16:54:31.823Z,100.00
2023-04-12T16:57:04.233Z,100.00
2023-04-12T16:59:36.306Z,100.00
2023-04-12T17:02:08.912Z,100.00
2023-04-12T17:04:41.274Z,100.00
2023-04-12T17:07:13.382Z,100.00
2023-04-12T17:09:45.494Z,100.00
2023-04-12T17:12:17.637Z,100.00
2023-04-12T17:14:51.398Z,100.00
2023-04-12T17:17:23.879Z,100.00
2023-04-12T17:19:56.150Z,100.00
2023-04-12T17:22:28.836Z,100.00
2023-04-12T17:25:01.273Z,100.00
2023-04-12T17:27:34.675Z,100.00
2023-04-12T17:30:12.086Z,100.00
2023-04-12T17:32:47.663Z,100.00
2023-04-12T17:35:20.493Z,100.00
2023-04-12T17:37:52.778Z,100.00
2023-04-12T17:40:25.028Z,100.00
2023-04-12T17:42:57.117Z,100.00
2023-04-12T17:45:29.328Z,100.00
2023-04-12T17:48:01.480Z,100.00
2023-04-12T17:50:33.573Z,100.00
2023-04-12T17:53:06.046Z,100.00
2023-04-12T17:55:38.896Z,100.00
2023-04-12T17:58:11.030Z,100.00
2023-04-12T18:00:43.840Z,100.00
2023-04-12T18:03:16.076Z,100.00
2023-04-12T18:05:48.552Z,100.00
2023-04-12T18:08:24.209Z,100.00
2023-04-12T18:10:56.318Z,100.00
2023-04-12T18:13:28.492Z,100.00
2023-04-12T18:16:01.536Z,100.00
2023-04-12T18:18:33.894Z,100.00
2023-04-12T18:21:06.801Z,100.00
2023-04-12T18:23:38.942Z,100.00
2023-04-12T18:26:11.027Z,100.00
2023-04-12T18:28:43.096Z,100.00
2023-04-12T18:31:15.476Z,100.00
2023-04-12T18:33:47.861Z,100.00
2023-04-12T18:36:19.930Z,100.00
2023-04-12T18:38:52.034Z,100.00
2023-04-12T18:41:24.108Z,100.00
2023-04-12T18:43:57.484Z,100.00
2023-04-12T18:46:29.898Z,100.00
2023-04-12T18:49:05.092Z,100.00
2023-04-12T18:51:37.679Z,100.00
2023-04-12T18:54:13.389Z,100.00
2023-04-12T18:56:45.547Z,100.00
2023-04-12T18:59:17.999Z,100.00
2023-04-12T19:01:50.276Z,100.00
2023-04-12T19:04:22.963Z,100.00
2023-04-12T19:06:56.557Z,100.00
2023-04-12T19:09:29.281Z,100.00
2023-04-12T19:12:03.143Z,100.00
2023-04-12T19:14:35.294Z,100.00
2023-04-12T19:17:08.144Z,100.00
2023-04-12T19:19:40.489Z,100.00
2023-04-12T19:22:12.660Z,100.00
2023-04-12T19:24:44.776Z,100.00
2023-04-12T19:27:17.030Z,100.00
2023-04-12T19:29:51.875Z,100.00
2023-04-12T19:32:24.088Z,100.00
2023-04-12T19:34:56.578Z,100.00
2023-04-12T19:37:34.186Z,100.00
2023-04-12T19:40:12.651Z,100.00
2023-04-12T19:42:44.764Z,100.00
2023-04-12T19:45:17.472Z,100.00
2023-04-12T19:47:49.626Z,100.00
2023-04-12T19:50:22.074Z,100.00
2023-04-12T19:52:54.222Z,100.00
2023-04-12T19:55:26.481Z,100.00
2023-04-12T19:57:59.370Z,100.00
2023-04-12T20:00:32.008Z,100.00
2023-04-12T20:03:04.446Z,100.00
2023-04-12T20:05:36.893Z,100.00
2023-04-12T20:08:10.995Z,100.00
2023-04-12T20:10:43.227Z,100.00
2023-04-12T20:13:15.573Z,100.00
2023-04-12T20:15:47.661Z,100.00
2023-04-12T20:18:19.724Z,100.00
2023-04-12T20:20:53.360Z,100.00
2023-04-12T20:23:26.752Z,100.00
2023-04-12T20:25:58.911Z,100.00
2023-04-12T20:28:31.124Z,100.00
2023-04-12T20:31:04.797Z,100.00
2023-04-12T20:33:37.170Z,100.00
2023-04-12T20:36:10.861Z,100.00
2023-04-12T20:38:43.500Z,100.00
2023-04-12T20:41:15.624Z,100.00
2023-04-12T20:43:48.504Z,100.00
2023-04-12T20:46:25.974Z,100.00
2023-04-12T20:48:58.524Z,100.00
2023-04-12T20:51:30.910Z,100.00
2023-04-12T20:54:03.322Z,100.00
2023-04-12T20:56:36.441Z,100.00
2023-04-12T20:59:08.873Z,100.00
2023-04-12T21:01:43.360Z,100.00
2023-04-12T21:04:17.486Z,100.00
2023-04-12T21:06:50.746Z,100.00
2023-04-12T21:09:23.678Z,100.00
2023-04-12T21:15:50.513Z,100.00
2023-04-12T21:18:23.683Z,100.00
2023-04-12T21:21:00.020Z,100.00
2023-04-12T21:23:32.169Z,100.00
2023-04-12T21:26:04.392Z,100.00
2023-04-12T21:28:38.608Z,100.00
2023-04-12T21:31:11.387Z,100.00
2023-04-12T21:33:43.557Z,100.00
2023-04-12T21:36:15.802Z,100.00
2023-04-12T21:38:48.202Z,100.00
2023-04-12T21:41:21.542Z,100.00
2023-04-12T21:43:53.603Z,100.00
2023-04-12T21:46:27.853Z,100.00
2023-04-12T21:49:00.205Z,100.00
2023-04-12T21:51:32.992Z,100.00
2023-04-12T21:54:26.946Z,100.00
2023-04-12T21:56:59.410Z,100.00
2023-04-12T21:59:31.482Z,100.00
2023-04-12T22:02:03.692Z,100.00
2023-04-12T22:04:36.177Z,100.00
2023-04-12T22:07:12.720Z,100.00
2023-04-12T22:09:45.838Z,100.00
2023-04-12T22:12:18.274Z,100.00
2023-04-12T22:14:50.422Z,100.00
2023-04-12T22:17:22.798Z,100.00
2023-04-12T22:19:57.932Z,100.00
2023-04-12T22:22:30.182Z,100.00
2023-04-12T22:25:02.297Z,100.00
2023-04-12T22:27:34.439Z,100.00
2023-04-12T22:30:10.558Z,100.00
2023-04-12T22:32:42.680Z,100.00
2023-04-12T22:35:16.057Z,100.00
2023-04-12T22:37:48.485Z,100.00
2023-04-12T22:40:20.830Z,100.00
2023-04-12T22:42:53.993Z,100.00
2023-04-12T22:45:26.390Z,100.00
2023-04-12T22:47:58.512Z,100.00
2023-04-12T22:50:30.594Z,100.00
2023-04-12T22:53:03.446Z,100.00
2023-04-12T22:55:36.801Z,100.00
2023-04-12T22:58:08.970Z,100.00
2023-04-12T23:00:41.255Z,100.00
2023-04-12T23:03:13.332Z,100.00
2023-04-12T23:05:46.757Z,100.00
2023-04-12T23:08:20.313Z,100.00
2023-04-12T23:10:52.585Z,100.00
2023-04-12T23:13:24.777Z,100.00
2023-04-12T23:15:57.893Z,100.00
2023-04-12T23:18:30.090Z,100.00
2023-04-12T23:21:02.969Z,100.00
2023-04-12T23:23:34.998Z,100.00
2023-04-12T23:26:07.227Z,100.00
2023-04-12T23:28:40.553Z,100.00
2023-04-12T23:31:12.635Z,100.00
2023-04-12T23:35:02.287Z,100.00
2023-04-12T23:37:36.206Z,100.00
2023-04-12T23:40:15.132Z,100.00
2023-04-12T23:42:48.873Z,100.00
2023-04-12T23:45:21.123Z,100.00
2023-04-12T23:47:56.569Z,100.00
2023-04-12T23:50:29.404Z,100.00
2023-04-12T23:53:01.954Z,100.00
2023-04-12T23:55:34.826Z,100.00
2023-04-12T23:58:07.205Z,100.00
